Latest Coastal Weather Observations for Arlington Reef

IDQ60701

Issued at 12:31 pm EST Sunday 2 August 2015 (issued every 10 minutes, with the page automatically refreshed every 10 minutes)

About coastal observations | Map of coastal stations | Coastal observations for QLD | Marine services | Other Formats
Station Details ID: 200879 Name: ARLINGTON REEF Lat: -16.72 Lon: 146.11 Height: 0.0 m
Data from the previous 72 hours. | See also: Recent months at Arlington Reef
Date/Time
EST
Temp

°C
Wind Pressure Rain
since 9am
mm
Weather Cloud Vis
km
Sea
Height
m
Swell
Dir
 
Speed
knots
Gust
knots
hPa Trend Height
m
Period
s
Dir
02/12:30pm - SE 10 12 1019.3 - - - - - - - - -
02/12:00pm - SE 14 18 1019.6 - - - - - - - - -
02/11:30am - SE 16 19 1019.8 - - - - - - - - -
02/11:00am - SE 14 17 1020.1 - - - - - - - - -
02/10:30am - SSE 13 16 1020.3 - - - - - - - - -
02/10:00am - SE 16 19 1020.5 - - - - - - - - -
02/09:30am - SE 12 15 1020.4 - - - - - - - - -
02/09:00am - ESE 13 15 1020.2 - - - - - - - - -
02/08:30am - SE 15 18 1019.7 - - - - - - - - -
02/08:00am - ESE 14 17 1019.4 - - - - - - - - -
02/07:30am - ESE 16 18 1019.2 - - - - - - - - -
02/07:00am - ESE 15 19 1018.8 - - - - - - - - -
02/06:30am - ESE 16 19 1018.4 - - - - - - - - -
02/06:00am - ESE 18 21 1018.2 - - - - - - - - -
02/05:30am - ESE 17 20 1017.9 - - - - - - - - -
02/05:00am - SE 15 21 1017.9 - - - - - - - - -
02/04:30am - SE 18 23 1017.6 - - - - - - - - -
02/04:00am - SE 18 21 1017.6 - - - - - - - - -
02/03:30am - SE 16 19 1017.8 - - - - - - - - -
02/03:00am - SE 18 20 1017.8 - - - - - - - - -
02/02:30am - SE 16 20 1018.0 - - - - - - - - -
02/02:00am - SE 18 21 1018.0 - - - - - - - - -
02/01:30am - SE 20 22 1018.0 - - - - - - - - -
02/01:00am - SE 20 23 1018.1 - - - - - - - - -
02/12:30am - SE 19 22 1018.3 - - - - - - - - -
02/12:00am - SE 19 23 1018.3 - - - - - - - - -
 
Date/Time
EST
Temp

°C
Wind Pressure Rain
since 9am
mm
Weather Cloud Vis
km
Sea
Height
m
Swell
Dir
 
Speed
knots
Gust
knots
hPa Trend Height
m
Period
s
Dir
01/11:30pm - SE 16 20 1018.5 - - - - - - - - -
01/11:00pm - SE 19 22 1018.6 - - - - - - - - -
01/10:30pm - SE 18 22 1018.5 - - - - - - - - -
01/10:00pm - SSE 19 23 1018.5 - - - - - - - - -
01/09:30pm - SSE 19 22 1018.4 - - - - - - - - -
01/09:00pm - SSE 20 23 1018.4 - - - - - - - - -
01/08:30pm - SSE 20 27 1018.2 - - - - - - - - -
01/08:00pm - SSE 20 23 1017.9 - - - - - - - - -
01/07:30pm - SSE 19 23 1017.6 - - - - - - - - -
01/07:00pm - S 20 28 1017.1 - - - - - - - - -
01/06:30pm - SSE 20 23 1016.9 - - - - - - - - -
01/06:00pm - S 21 25 1016.6 - - - - - - - - -
01/05:30pm - S 22 25 1016.5 - - - - - - - - -
01/05:00pm - S 22 26 1016.5 - - - - - - - - -
01/04:30pm - S 22 25 1016.5 - - - - - - - - -
01/04:00pm - S 22 27 1016.2 - - - - - - - - -
01/03:30pm - SSE 19 22 1016.6 - - - - - - - - -
01/03:00pm - SSE 20 23 1016.7 - - - - - - - - -
01/02:30pm - SSE 21 24 1016.8 - - - - - - - - -
01/02:00pm - SSE 21 24 1017.1 - - - - - - - - -
01/01:30pm - SSE 22 26 1017.2 - - - - - - - - -
01/01:00pm - SSE 20 23 1017.5 - - - - - - - - -
01/12:30pm - S 16 20 1018.2 - - - - - - - - -
01/12:00pm - SSE 18 21 1018.6 - - - - - - - - -
01/11:30am - SSE 16 21 1019.1 - - - - - - - - -
01/11:00am - SSE 19 22 1019.3 - - - - - - - - -
01/10:30am - SSE 18 21 1019.9 - - - - - - - - -
01/10:00am - SSE 18 22 1019.9 - - - - - - - - -
01/09:30am - SE 18 22 1019.8 - - - - - - - - -
01/09:00am - SSE 16 19 1019.6 - - - - - - - - -
01/08:30am - SSE 18 21 1019.4 - - - - - - - - -
01/08:00am - SSE 19 22 1019.2 - - - - - - - - -
01/07:49am - SSE 22 25 1019.0 - - - - - - - - -
01/07:30am - ESE 20 25 1018.8 - - - - - - - - -
01/07:00am - ESE 18 22 1018.6 - - - - - - - - -
01/06:30am - SE 20 24 1018.2 - - - - - - - - -
01/06:00am - ESE 20 24 1017.9 - - - - - - - - -
01/05:30am - ESE 20 24 1017.8 - - - - - - - - -
01/05:00am - ESE 22 25 1017.6 - - - - - - - - -
01/04:30am - ESE 22 26 1017.3 - - - - - - - - -
01/04:00am - E 15 22 1017.3 - - - - - - - - -
01/03:30am - E 23 26 1017.3 - - - - - - - - -
01/03:00am - ESE 23 28 1017.4 - - - - - - - - -
01/02:30am - SE 19 23 1017.7 - - - - - - - - -
01/02:00am - ESE 19 25 1017.8 - - - - - - - - -
01/01:30am - SE 18 24 1018.0 - - - - - - - - -
01/01:00am - SE 19 23 1018.1 - - - - - - - - -
01/12:30am - SE 24 29 1018.1 - - - - - - - - -
01/12:10am - SE 19 28 1018.1 - - - - - - - - -
01/12:00am - SE 15 18 1018.5 - - - - - - - - -
 
Date/Time
EST
Temp

°C
Wind Pressure Rain
since 9am
mm
Weather Cloud Vis
km
Sea
Height
m
Swell
Dir
 
Speed
knots
Gust
knots
hPa Trend Height
m
Period
s
Dir
31/11:30pm - SE 27 35 1018.7 - - - - - - - - -
31/11:19pm - SE 22 32 1018.5 - - - - - - - - -
31/11:00pm - SE 20 28 1018.6 - - - - - - - - -
31/10:35pm - SSE 20 30 1018.4 - - - - - - - - -
31/10:30pm - SSE 22 28 1018.4 - - - - - - - - -
31/10:00pm - SE 21 25 1018.4 - - - - - - - - -
31/09:30pm - SSE 21 25 1018.4 - - - - - - - - -
31/09:00pm - SE 21 24 1018.2 - - - - - - - - -
31/08:30pm - SE 21 26 1018.1 - - - - - - - - -
31/08:00pm - SSE 20 23 1018.1 - - - - - - - - -
31/07:30pm - SSE 21 25 1017.7 - - - - - - - - -
31/07:00pm - SSE 22 27 1017.2 - - - - - - - - -
31/06:30pm - SSE 21 26 1017.0 - - - - - - - - -
31/06:00pm - SSE 23 27 1016.7 - - - - - - - - -
31/05:30pm - SSE 24 29 1016.5 - - - - - - - - -
31/05:00pm - SSE 24 29 1016.3 - - - - - - - - -
31/04:30pm - SSE 22 26 1016.3 - - - - - - - - -
31/04:00pm - S 23 26 1016.2 - - - - - - - - -
31/03:30pm - SSE 23 27 1016.2 - - - - - - - - -
31/03:00pm - SSE 21 25 1016.5 - - - - - - - - -
31/02:30pm - SSE 23 27 1016.8 - - - - - - - - -
31/02:00pm - SSE 24 27 1017.0 - - - - - - - - -
31/01:30pm - SSE 22 27 1017.3 - - - - - - - - -
31/01:00pm - SSE 23 27 1017.7 - - - - - - - - -
31/12:30pm - SSE 21 25 1018.2 - - - - - - - - -
31/12:00pm - SSE 22 26 1018.5 - - - - - - - - -
31/11:30am - SSE 22 26 1018.9 - - - - - - - - -
31/11:00am - SSE 17 20 1019.4 - - - - - - - - -
31/10:30am - SSE 20 24 1019.7 - - - - - - - - -
31/10:00am - SSE 19 22 1020.0 - - - - - - - - -
31/09:51am - SSE 20 30 1020.1 - - - - - - - - -
31/09:30am - SSE 19 25 1020.1 - - - - - - - - -
31/09:00am - SE 22 28 1020.1 - - - - - - - - -
31/08:30am - SSE 24 28 1019.6 - - - - - - - - -
31/08:00am - SE 22 25 1019.5 - - - - - - - - -
31/07:30am - SE 21 26 1019.3 - - - - - - - - -
31/07:00am - SE 21 25 1018.7 - - - - - - - - -
31/06:30am - ESE 18 26 1018.5 - - - - - - - - -
31/06:22am - SE 21 26 1018.4 - - - - - - - - -
31/06:15am - SE 19 23 1018.2 - - - - - - - - -
31/06:00am - ESE 14 18 1018.5 - - - - - - - - -
31/05:53am - SE 16 19 1018.5 - - - - - - - - -
31/05:30am - SE 21 27 1018.1 - - - - - - - - -
31/05:00am - SSE 18 22 1018.3 - - - - - - - - -
31/04:30am - SSE 18 22 1018.3 - - - - - - - - -
31/04:00am - SSE 25 32 1018.3 - - - - - - - - -
31/03:30am - SE 20 25 1018.3 - - - - - - - - -
31/03:00am - SE 19 24 1018.7 - - - - - - - - -
31/02:40am - SE 25 35 1019.0 - - - - - - - - -
31/02:30am - SE 28 35 1018.5 - - - - - - - - -
31/02:00am - ESE 24 29 1018.9 - - - - - - - - -
31/01:30am - SSE 19 29 1019.0 - - - - - - - - -
31/01:00am - SSE 17 21 1019.6 - - - - - - - - -
31/12:30am - SSE 19 23 1019.7 - - - - - - - - -
31/12:00am - SSE 16 20 1019.9 - - - - - - - - -
 
Date/Time
EST
Temp

°C
Wind Pressure Rain
since 9am
mm
Weather Cloud Vis
km
Sea
Height
m
Swell
Dir
 
Speed
knots
Gust
knots
hPa Trend Height
m
Period
s
Dir
30/11:30pm - SSE 18 24 1019.9 - - - - - - - - -
30/11:08pm - SSE 21 39 1020.4 - - - - - - - - -
30/11:03pm - S 21 39 1020.4 - - - - - - - - -
30/11:01pm - S 21 39 1020.1 - - - - - - - - -
30/11:00pm - S 20 26 1020.2 - - - - - - - - -
30/10:30pm - S 17 20 1020.2 - - - - - - - - -
30/10:00pm - SE 19 23 1020.3 - - - - - - - - -
30/09:30pm - SSE 17 21 1020.2 - - - - - - - - -
30/09:00pm - S 23 28 1020.0 - - - - - - - - -
30/08:30pm - S 19 24 1020.0 - - - - - - - - -
30/08:00pm - S 19 23 1019.9 - - - - - - - - -
30/07:30pm - S 21 25 1019.3 - - - - - - - - -
30/07:00pm - S 22 27 1019.1 - - - - - - - - -
30/06:30pm - S 19 23 1018.9 - - - - - - - - -
30/06:00pm - SSE 22 25 1018.8 - - - - - - - - -
30/05:30pm - S 22 27 1018.6 - - - - - - - - -
30/05:00pm - S 22 27 1018.3 - - - - - - - - -
30/04:30pm - S 23 26 1018.2 - - - - - - - - -
30/04:00pm - S 23 27 1018.0 - - - - - - - - -
30/03:30pm - S 22 26 1017.9 - - - - - - - - -
30/03:00pm - S 23 27 1018.1 - - - - - - - - -
30/02:30pm - S 23 26 1018.3 - - - - - - - - -
30/02:00pm - S 23 27 1018.7 - - - - - - - - -
30/01:30pm - SSE 22 26 1019.0 - - - - - - - - -
30/01:00pm - SSE 23 27 1019.4 - - - - - - - - -

Other Formats:

Comma delimited format used in spreadsheet applications
http://www.bom.gov.au/fwo/IDQ60701/IDQ60701.94284.axf

JavaScript Object Notation format (JSON) in row-major order
http://www.bom.gov.au/fwo/IDQ60701/IDQ60701.94284.json